Rocky Hill, Mississippi
Current Conditions -  °F | °C
As of 11:35 AM on Monday 24 Nov 2014 (Local Time) from KSTF Reporting Station
Scattered Clouds Scattered Clouds  
Wind Chill: 15°   Ceiling: Unl
Heat Index: 15°   Visibility: NA
Dew Point:   Wind: 8mph
Humidity: 55%   Direction: 280°W
Pressure: 29.9"   Gusts: NA
Location:  33.4256°N, 88.8438°W
Report Text: KSTF 241735Z AUTO 28007KT 252V322 SCT034 15/06 A2990 RMK AO2 PWINO
Loading
Personal Weather Stations






























Interactive Weather Map New forecast layout! Learn more

10-Day Weather Forecast

Advertisements
Track Severe Weather on mobile